Time;durP1;ratioP1;P1;durP2;ratioP2;P2;SDS_P1;SDS_P2;PMS_P1;PMS_P2;Temp;Humidity;BMP_temperature;BMP_pressure;BME280_temperature;BME280_humidity;BME280_pressure;Samples;Min_cycle;Max_cycle;Signal;HPM_P1;HPM_P2
2023/06/08 00:02:04;;;;;;;;;;;21.50;46.60;;;;;;5013511;28;19928;-62
2023/06/08 00:04:33;;;;;;;;;;;21.50;46.60;;;;;;5012554;28;20016;-61
2023/06/08 00:06:59;;;;;;;;;;;21.50;46.70;;;;;;5010986;28;19925;-63
2023/06/08 00:09:26;;;;;;;;;;;21.50;46.60;;;;;;5014678;28;19922;-62
2023/06/08 00:11:55;;;;;;;;;;;21.50;46.60;;;;;;5012275;28;19988;-62
2023/06/08 00:14:23;;;;;;;;;;;21.50;46.60;;;;;;5029905;28;19928;-62
2023/06/08 00:16:50;;;;;;;;;;;21.50;46.60;;;;;;5009031;28;19976;-62
2023/06/08 00:19:16;;;;;;;;;;;21.50;46.60;;;;;;5009712;28;19925;-62
2023/06/08 00:21:44;;;;;;;;;;;21.50;46.60;;;;;;5005696;28;19921;-62
2023/06/08 00:24:11;;;;;;;;;;;21.40;46.50;;;;;;5012753;28;19938;-61
2023/06/08 00:26:40;;;;;;;;;;;21.40;46.50;;;;;;5010728;28;20359;-62
2023/06/08 00:29:07;;;;;;;;;;;21.40;46.50;;;;;;5006400;28;19926;-62
2023/06/08 00:31:35;;;;;;;;;;;21.40;46.50;;;;;;5012056;28;19972;-62
2023/06/08 00:34:02;;;;;;;;;;;21.40;46.50;;;;;;5011881;28;19945;-62
2023/06/08 00:36:28;;;;;;;;;;;21.40;46.50;;;;;;5012513;28;20008;-62
2023/06/08 00:38:55;;;;;;;;;;;21.40;47.00;;;;;;5011449;28;19921;-61
2023/06/08 00:41:22;;;;;;;;;;;21.40;46.40;;;;;;5012025;28;19972;-63
2023/06/08 00:43:49;;;;;;;;;;;21.40;46.40;;;;;;5007215;28;19969;-63
2023/06/08 00:46:16;;;;;;;;;;;21.40;46.40;;;;;;5001435;28;19922;-62
2023/06/08 00:48:44;;;;;;;;;;;21.40;46.40;;;;;;5011609;28;19921;-63
2023/06/08 00:51:11;;;;;;;;;;;21.40;46.40;;;;;;5003882;28;19922;-62
2023/06/08 00:53:37;;;;;;;;;;;21.40;46.40;;;;;;5013085;28;19975;-62
2023/06/08 00:56:04;;;;;;;;;;;21.40;46.40;;;;;;5011355;28;19921;-62
2023/06/08 00:58:33;;;;;;;;;;;21.40;46.30;;;;;;5005539;28;19945;-62
2023/06/08 01:01:01;;;;;;;;;;;21.40;46.40;;;;;;5012715;28;19922;-63
2023/06/08 01:03:33;;;;;;;;;;;21.40;46.30;;;;;;5003526;28;19971;-63
2023/06/08 01:06:02;;;;;;;;;;;21.30;46.20;;;;;;5012588;28;19929;-62
2023/06/08 01:08:32;;;;;;;;;;;21.30;46.20;;;;;;5027013;28;20016;-62
2023/06/08 01:11:00;;;;;;;;;;;21.30;46.10;;;;;;5015964;28;19929;-62
2023/06/08 01:13:29;;;;;;;;;;;21.30;46.10;;;;;;5031685;28;19925;-62
2023/06/08 01:15:58;;;;;;;;;;;21.30;46.10;;;;;;5016055;28;19921;-61
2023/06/08 01:18:24;;;;;;;;;;;21.30;46.10;;;;;;5015020;28;19944;-62
2023/06/08 01:21:02;;;;;;;;;;;21.30;46.10;;;;;;5015595;28;19984;-62
2023/06/08 01:23:37;;;;;;;;;;;21.30;46.10;;;;;;5011739;28;20386;-62
2023/06/08 01:26:05;;;;;;;;;;;21.30;46.10;;;;;;4995458;28;19929;-62
2023/06/08 01:28:32;;;;;;;;;;;21.30;46.10;;;;;;5012260;28;19922;-63
2023/06/08 01:30:59;;;;;;;;;;;21.30;46.10;;;;;;4993759;28;19921;-63
2023/06/08 01:33:26;;;;;;;;;;;21.30;46.00;;;;;;4995277;28;20335;-62
2023/06/08 01:35:55;;;;;;;;;;;21.30;46.00;;;;;;4996444;28;19929;-62
2023/06/08 01:38:22;;;;;;;;;;;21.30;46.00;;;;;;4998808;28;19922;-63
2023/06/08 01:40:50;;;;;;;;;;;21.20;45.90;;;;;;5029913;28;20451;-63
2023/06/08 01:43:18;;;;;;;;;;;21.30;46.00;;;;;;4994624;28;19961;-62
2023/06/08 01:45:46;;;;;;;;;;;21.20;45.80;;;;;;4993408;28;19929;-63
2023/06/08 01:48:15;;;;;;;;;;;21.20;45.80;;;;;;5000381;28;19968;-63
2023/06/08 01:50:42;;;;;;;;;;;21.20;45.80;;;;;;5011021;28;20011;-62
2023/06/08 01:53:11;;;;;;;;;;;21.20;45.70;;;;;;5006242;28;20009;-63
2023/06/08 01:55:37;;;;;;;;;;;21.20;45.70;;;;;;5031183;28;19960;-63
2023/06/08 01:58:04;;;;;;;;;;;21.20;45.70;;;;;;5015310;28;20333;-63
2023/06/08 02:00:34;;;;;;;;;;;21.20;45.70;;;;;;5015003;28;19925;-63
2023/06/08 02:03:01;;;;;;;;;;;21.20;45.70;;;;;;5009083;28;19929;-63
2023/06/08 02:05:28;;;;;;;;;;;21.20;45.60;;;;;;5014310;28;19965;-63
2023/06/08 02:07:55;;;;;;;;;;;21.10;45.50;;;;;;5013735;28;19921;-63
2023/06/08 02:10:23;;;;;;;;;;;21.10;45.50;;;;;;5014342;28;19957;-63
2023/06/08 02:12:49;;;;;;;;;;;21.10;45.50;;;;;;4998187;28;19926;-62
2023/06/08 02:15:16;;;;;;;;;;;21.10;45.50;;;;;;4995399;28;19928;-63
2023/06/08 02:17:44;;;;;;;;;;;21.10;45.50;;;;;;4992078;28;19984;-62
2023/06/08 02:20:11;;;;;;;;;;;21.10;45.50;;;;;;5006950;28;19958;-62
2023/06/08 02:22:38;;;;;;;;;;;21.10;45.50;;;;;;5010573;28;19953;-62
2023/06/08 02:25:05;;;;;;;;;;;21.10;45.50;;;;;;5013841;28;19968;-62
2023/06/08 02:27:35;;;;;;;;;;;21.10;45.50;;;;;;5028857;28;19921;-63
2023/06/08 02:30:02;;;;;;;;;;;21.00;45.40;;;;;;5012373;28;19972;-63
2023/06/08 02:32:32;;;;;;;;;;;21.00;46.10;;;;;;4993136;28;19934;-62
2023/06/08 02:35:01;;;;;;;;;;;21.00;45.50;;;;;;5010977;28;19921;-62
2023/06/08 02:37:28;;;;;;;;;;;21.00;45.50;;;;;;5014841;28;19940;-63
2023/06/08 02:39:55;;;;;;;;;;;21.00;45.50;;;;;;5011968;28;20263;-62
2023/06/08 02:42:22;;;;;;;;;;;21.00;45.50;;;;;;5012725;28;19961;-62
2023/06/08 02:44:48;;;;;;;;;;;21.00;45.50;;;;;;5001760;28;19977;-63
2023/06/08 02:47:16;;;;;;;;;;;21.00;45.50;;;;;;4993936;28;19922;-63
2023/06/08 02:49:42;;;;;;;;;;;21.00;45.50;;;;;;4993951;28;19922;-63
2023/06/08 02:52:10;;;;;;;;;;;21.00;45.50;;;;;;4992328;28;19929;-63
2023/06/08 02:54:37;;;;;;;;;;;21.00;45.60;;;;;;4993597;28;19957;-63
2023/06/08 02:57:05;;;;;;;;;;;21.00;45.50;;;;;;4993856;28;19976;-63
2023/06/08 02:59:32;;;;;;;;;;;21.00;45.50;;;;;;4993669;28;19925;-62
2023/06/08 03:01:59;;;;;;;;;;;20.90;45.40;;;;;;4993607;28;19929;-63
2023/06/08 03:04:26;;;;;;;;;;;20.90;45.40;;;;;;5002827;28;19921;-63
2023/06/08 03:06:53;;;;;;;;;;;20.90;45.50;;;;;;5029802;28;19922;-62
2023/06/08 03:09:22;;;;;;;;;;;20.90;45.50;;;;;;5013730;28;20015;-62
2023/06/08 03:11:48;;;;;;;;;;;20.90;45.50;;;;;;5011473;28;19944;-62
2023/06/08 03:14:16;;;;;;;;;;;20.90;45.50;;;;;;5013162;28;19921;-63
2023/06/08 03:16:44;;;;;;;;;;;20.90;45.50;;;;;;5013190;28;19921;-62
2023/06/08 03:19:10;;;;;;;;;;;20.90;45.50;;;;;;5013199;28;19922;-63
2023/06/08 03:21:38;;;;;;;;;;;20.90;45.50;;;;;;5013852;28;19971;-63
2023/06/08 03:24:05;;;;;;;;;;;20.90;45.50;;;;;;4991687;28;20348;-63
2023/06/08 03:26:33;;;;;;;;;;;20.90;45.50;;;;;;4993571;28;19922;-63
2023/06/08 03:29:00;;;;;;;;;;;20.90;45.50;;;;;;4995215;28;19921;-63
2023/06/08 03:31:29;;;;;;;;;;;20.90;45.50;;;;;;5009487;28;19921;-64
2023/06/08 03:33:56;;;;;;;;;;;20.90;45.60;;;;;;5014166;28;19925;-64
2023/06/08 03:36:33;;;;;;;;;;;20.90;45.60;;;;;;5013380;28;19925;-64
2023/06/08 03:39:00;;;;;;;;;;;20.90;45.60;;;;;;5002787;28;19929;-64
2023/06/08 03:41:27;;;;;;;;;;;20.90;45.60;;;;;;4991467;28;19968;-63
2023/06/08 03:43:55;;;;;;;;;;;20.80;45.60;;;;;;5008686;28;19921;-63
2023/06/08 03:46:22;;;;;;;;;;;20.80;45.60;;;;;;5010791;28;19957;-62
2023/06/08 03:48:49;;;;;;;;;;;20.80;45.60;;;;;;4994794;28;19929;-64
2023/06/08 03:51:16;;;;;;;;;;;20.80;45.60;;;;;;4993805;28;19964;-64
2023/06/08 03:53:42;;;;;;;;;;;20.80;45.70;;;;;;4993919;28;20036;-63
2023/06/08 03:56:09;;;;;;;;;;;20.80;45.70;;;;;;4993177;28;19922;-63
2023/06/08 03:58:36;;;;;;;;;;;20.80;45.60;;;;;;4993306;28;19988;-63
2023/06/08 04:01:04;;;;;;;;;;;20.80;45.70;;;;;;5011190;28;19932;-64
2023/06/08 04:03:31;;;;;;;;;;;20.80;45.70;;;;;;5012304;28;19922;-63
2023/06/08 04:05:58;;;;;;;;;;;20.80;45.70;;;;;;4999242;28;19969;-63
2023/06/08 04:08:26;;;;;;;;;;;20.80;45.70;;;;;;4992556;28;19969;-63
2023/06/08 04:10:53;;;;;;;;;;;20.80;45.70;;;;;;5010096;28;19926;-63
2023/06/08 04:13:20;;;;;;;;;;;20.80;45.70;;;;;;5013770;28;19929;-63
2023/06/08 04:15:47;;;;;;;;;;;20.80;45.70;;;;;;5012469;28;19921;-63
2023/06/08 04:18:15;;;;;;;;;;;20.80;45.70;;;;;;5001279;28;19993;-63
2023/06/08 04:20:42;;;;;;;;;;;20.80;45.70;;;;;;4993646;28;19926;-63
2023/06/08 04:23:10;;;;;;;;;;;20.80;45.80;;;;;;5003269;28;19921;-63
2023/06/08 04:25:37;;;;;;;;;;;20.80;45.80;;;;;;5016246;28;19925;-62
2023/06/08 04:28:04;;;;;;;;;;;20.80;45.80;;;;;;5009316;28;20396;-63
2023/06/08 04:30:31;;;;;;;;;;;20.80;45.80;;;;;;5007346;28;19921;-63
2023/06/08 04:32:59;;;;;;;;;;;20.80;45.80;;;;;;5005958;28;19940;-62
2023/06/08 04:35:27;;;;;;;;;;;20.80;45.80;;;;;;5003895;28;19921;-63
2023/06/08 04:37:55;;;;;;;;;;;20.80;45.80;;;;;;5011943;28;19921;-59
2023/06/08 04:40:25;;;;;;;;;;;20.80;45.90;;;;;;5006365;28;20020;-62
2023/06/08 04:42:51;;;;;;;;;;;20.80;45.80;;;;;;5005694;28;19921;-63
2023/06/08 04:45:18;;;;;;;;;;;20.80;45.80;;;;;;5014377;28;19921;-63
2023/06/08 04:47:45;;;;;;;;;;;20.80;45.80;;;;;;5011744;28;19921;-63
2023/06/08 04:50:12;;;;;;;;;;;20.80;45.80;;;;;;5002208;28;20250;-63
2023/06/08 04:52:41;;;;;;;;;;;20.80;45.80;;;;;;5015629;28;19925;-62
2023/06/08 04:55:08;;;;;;;;;;;20.80;45.90;;;;;;5016108;28;19928;-63
2023/06/08 04:57:36;;;;;;;;;;;20.80;45.80;;;;;;5030212;28;19922;-63
2023/06/08 05:00:05;;;;;;;;;;;20.80;45.90;;;;;;5006313;28;19984;-63
2023/06/08 05:02:32;;;;;;;;;;;20.80;45.90;;;;;;5010640;28;19940;-63
2023/06/08 05:04:59;;;;;;;;;;;20.80;45.90;;;;;;5004711;28;19936;-62
2023/06/08 05:07:26;;;;;;;;;;;20.80;45.90;;;;;;5004485;28;19948;-62
2023/06/08 05:09:55;;;;;;;;;;;20.70;45.90;;;;;;5027608;28;19983;-62
2023/06/08 05:12:21;;;;;;;;;;;20.70;45.90;;;;;;5005866;28;20268;-62
2023/06/08 05:14:48;;;;;;;;;;;20.70;45.90;;;;;;5009085;28;19928;-63
2023/06/08 05:17:15;;;;;;;;;;;20.70;45.90;;;;;;5001870;28;19929;-63
2023/06/08 05:19:42;;;;;;;;;;;20.70;45.90;;;;;;4996018;28;19925;-62
2023/06/08 05:22:09;;;;;;;;;;;20.80;46.00;;;;;;5029200;28;19929;-62
2023/06/08 05:24:35;;;;;;;;;;;20.70;45.90;;;;;;5032315;28;20287;-63
2023/06/08 05:27:05;;;;;;;;;;;20.70;45.90;;;;;;5031295;28;19921;-62
2023/06/08 05:29:32;;;;;;;;;;;20.70;45.90;;;;;;5013778;28;19925;-62
2023/06/08 05:32:00;;;;;;;;;;;20.70;46.00;;;;;;5014136;28;19968;-63
2023/06/08 05:34:27;;;;;;;;;;;20.70;46.10;;;;;;5013597;28;19925;-63
2023/06/08 05:36:54;;;;;;;;;;;20.70;46.00;;;;;;5015241;28;19929;-63
2023/06/08 05:39:21;;;;;;;;;;;20.70;46.10;;;;;;5015020;28;19945;-63
2023/06/08 05:41:48;;;;;;;;;;;20.70;46.10;;;;;;5015146;28;19929;-63
2023/06/08 05:44:16;;;;;;;;;;;20.80;46.20;;;;;;5014860;28;19975;-63
2023/06/08 05:46:42;;;;;;;;;;;20.80;46.20;;;;;;5014948;28;19968;-63
2023/06/08 05:49:09;;;;;;;;;;;20.80;46.20;;;;;;5011043;28;19921;-62
2023/06/08 05:51:36;;;;;;;;;;;20.70;46.10;;;;;;4995942;28;19922;-63
2023/06/08 05:54:03;;;;;;;;;;;20.80;46.20;;;;;;4994997;28;19921;-63
2023/06/08 05:56:30;;;;;;;;;;;20.80;46.20;;;;;;5004543;28;19922;-63
2023/06/08 05:58:57;;;;;;;;;;;20.80;46.20;;;;;;5015280;28;20383;-62
2023/06/08 06:01:25;;;;;;;;;;;20.80;46.20;;;;;;5031185;28;20360;-63
2023/06/08 06:03:52;;;;;;;;;;;20.80;46.20;;;;;;5012748;28;19972;-64
2023/06/08 06:06:19;;;;;;;;;;;20.80;46.30;;;;;;5026686;28;20307;-63
2023/06/08 06:08:45;;;;;;;;;;;20.80;46.30;;;;;;5002326;28;19921;-62
2023/06/08 06:11:12;;;;;;;;;;;20.80;46.20;;;;;;5035121;28;20241;-63
2023/06/08 06:13:39;;;;;;;;;;;20.80;46.20;;;;;;5012938;28;19922;-62
2023/06/08 06:16:06;;;;;;;;;;;20.80;46.20;;;;;;5009797;28;19922;-63
2023/06/08 06:18:34;;;;;;;;;;;20.80;46.20;;;;;;4997217;28;20304;-64
2023/06/08 06:21:01;;;;;;;;;;;20.80;46.30;;;;;;5000594;28;19948;-63
2023/06/08 06:23:28;;;;;;;;;;;20.80;46.30;;;;;;4992469;28;20336;-63
2023/06/08 06:25:55;;;;;;;;;;;20.80;46.30;;;;;;5010304;28;19929;-63
2023/06/08 06:28:22;;;;;;;;;;;20.80;46.30;;;;;;5010404;28;19922;-62
2023/06/08 06:30:49;;;;;;;;;;;20.80;46.30;;;;;;5004271;28;20415;-63
2023/06/08 06:33:16;;;;;;;;;;;20.80;46.30;;;;;;5009246;28;19957;-62
2023/06/08 06:35:44;;;;;;;;;;;20.80;46.30;;;;;;4998544;28;19921;-62
2023/06/08 06:38:11;;;;;;;;;;;20.80;46.30;;;;;;5030635;28;20355;-59
2023/06/08 06:40:37;;;;;;;;;;;20.80;47.00;;;;;;4995703;28;19921;-65
2023/06/08 06:43:04;;;;;;;;;;;20.80;46.40;;;;;;5008305;28;20422;-65
2023/06/08 06:45:31;;;;;;;;;;;20.80;47.00;;;;;;5012618;28;19921;-63
2023/06/08 06:47:58;;;;;;;;;;;20.80;46.40;;;;;;5014650;28;19947;-65
2023/06/08 06:50:24;;;;;;;;;;;20.80;46.50;;;;;;5034282;28;19987;-64
2023/06/08 06:52:53;;;;;;;;;;;20.80;46.50;;;;;;5033283;28;19944;-65
2023/06/08 06:55:20;;;;;;;;;;;20.80;46.50;;;;;;5032228;28;19921;-67
2023/06/08 06:57:48;;;;;;;;;;;20.80;46.50;;;;;;5023685;28;19945;-67
2023/06/08 07:00:15;;;;;;;;;;;20.80;46.60;;;;;;5027788;28;19926;-64
2023/06/08 07:02:42;;;;;;;;;;;20.80;46.60;;;;;;5014672;28;19928;-63
2023/06/08 07:05:10;;;;;;;;;;;20.80;46.60;;;;;;5012717;28;19921;-64
2023/06/08 07:07:37;;;;;;;;;;;20.80;46.60;;;;;;5013488;28;19952;-64
2023/06/08 07:10:06;;;;;;;;;;;20.80;46.50;;;;;;5013091;28;19960;-64
2023/06/08 07:12:32;;;;;;;;;;;20.80;46.50;;;;;;5013605;28;19971;-63
2023/06/08 07:14:59;;;;;;;;;;;20.90;46.60;;;;;;5015496;28;19922;-63
2023/06/08 07:17:32;;;;;;;;;;;20.90;46.60;;;;;;5033242;28;19928;-63
2023/06/08 07:19:59;;;;;;;;;;;20.90;46.60;;;;;;5013022;28;19922;-64
2023/06/08 07:22:26;;;;;;;;;;;20.90;46.50;;;;;;5003245;28;19921;-65
2023/06/08 07:24:53;;;;;;;;;;;20.90;46.60;;;;;;5035071;28;19979;-64
2023/06/08 07:27:21;;;;;;;;;;;20.90;46.70;;;;;;5011524;28;19921;-64
2023/06/08 07:29:49;;;;;;;;;;;20.90;46.60;;;;;;5016080;28;19927;-63
2023/06/08 07:32:16;;;;;;;;;;;20.90;46.60;;;;;;5017463;28;19928;-62
2023/06/08 07:34:43;;;;;;;;;;;20.90;46.60;;;;;;5033353;28;19967;-64
2023/06/08 07:37:09;;;;;;;;;;;20.90;46.60;;;;;;5035262;28;19928;-65
2023/06/08 07:39:36;;;;;;;;;;;21.00;46.60;;;;;;5024926;28;19925;-64
2023/06/08 07:42:03;;;;;;;;;;;21.00;46.70;;;;;;5015310;28;19925;-64
2023/06/08 07:44:31;;;;;;;;;;;21.00;46.70;;;;;;5014886;28;19921;-65
2023/06/08 07:47:00;;;;;;;;;;;21.00;46.60;;;;;;5016436;28;19944;-64
2023/06/08 07:49:28;;;;;;;;;;;21.00;46.60;;;;;;5013648;28;19921;-64
2023/06/08 07:51:55;;;;;;;;;;;21.00;46.60;;;;;;5012758;28;19925;-64
2023/06/08 07:54:22;;;;;;;;;;;21.00;46.60;;;;;;5012306;28;20311;-62
2023/06/08 07:56:49;;;;;;;;;;;21.00;46.60;;;;;;5012649;28;19988;-63
2023/06/08 07:59:16;;;;;;;;;;;21.00;46.60;;;;;;5013585;28;20015;-63
2023/06/08 08:01:45;;;;;;;;;;;21.00;46.60;;;;;;5029055;28;19921;-63
2023/06/08 08:04:12;;;;;;;;;;;21.00;46.60;;;;;;5011250;28;19921;-62
2023/06/08 08:06:39;;;;;;;;;;;21.00;46.60;;;;;;5012585;28;19968;-62
2023/06/08 08:09:06;;;;;;;;;;;21.10;46.60;;;;;;5004810;28;19926;-64
2023/06/08 08:11:32;;;;;;;;;;;21.10;46.60;;;;;;5019103;28;19922;-62
2023/06/08 08:13:59;;;;;;;;;;;21.10;46.70;;;;;;5012491;28;19921;-64
2023/06/08 08:16:26;;;;;;;;;;;21.10;46.70;;;;;;5014669;28;19968;-64
2023/06/08 08:18:54;;;;;;;;;;;21.10;46.70;;;;;;5027549;28;19929;-63
2023/06/08 08:21:21;;;;;;;;;;;21.10;46.70;;;;;;4998389;28;19922;-62
2023/06/08 08:23:48;;;;;;;;;;;21.10;46.70;;;;;;5016455;28;20026;-63
2023/06/08 08:26:14;;;;;;;;;;;21.10;46.70;;;;;;5016058;28;20027;-63
2023/06/08 08:28:44;;;;;;;;;;;21.10;46.70;;;;;;5017642;28;19925;-63
2023/06/08 08:31:11;;;;;;;;;;;21.20;46.80;;;;;;5016664;28;19944;-63
2023/06/08 08:33:38;;;;;;;;;;;21.20;46.80;;;;;;5017105;28;19945;-63
2023/06/08 08:36:07;;;;;;;;;;;21.20;46.80;;;;;;5030393;28;19929;-63
2023/06/08 08:38:34;;;;;;;;;;;21.20;46.80;;;;;;5036979;28;19921;-64
2023/06/08 08:41:02;;;;;;;;;;;21.20;46.80;;;;;;5037095;28;19928;-64
2023/06/08 08:43:30;;;;;;;;;;;21.20;46.80;;;;;;5036190;28;19921;-64
2023/06/08 08:45:57;;;;;;;;;;;21.20;46.70;;;;;;5030951;28;19943;-65
2023/06/08 08:48:25;;;;;;;;;;;21.20;46.80;;;;;;5017237;28;19921;-64
2023/06/08 08:50:53;;;;;;;;;;;21.20;46.80;;;;;;5016184;28;19922;-63
2023/06/08 08:53:21;;;;;;;;;;;21.20;46.70;;;;;;5015514;28;19928;-64
2023/06/08 08:55:48;;;;;;;;;;;21.30;46.80;;;;;;5015404;28;19968;-64
2023/06/08 08:58:18;;;;;;;;;;;21.30;46.70;;;;;;5015585;28;20020;-64
2023/06/08 09:00:48;;;;;;;;;;;21.30;46.70;;;;;;5015666;28;19922;-64
2023/06/08 09:03:15;;;;;;;;;;;21.30;46.70;;;;;;5015290;28;19921;-64
2023/06/08 09:05:43;;;;;;;;;;;21.30;46.80;;;;;;5015043;28;20032;-63
2023/06/08 09:08:11;;;;;;;;;;;21.30;46.80;;;;;;5013357;28;19964;-63
2023/06/08 09:10:39;;;;;;;;;;;21.30;46.80;;;;;;5015723;28;20276;-63
2023/06/08 09:13:06;;;;;;;;;;;21.30;46.70;;;;;;5015390;28;19921;-64
2023/06/08 09:15:34;;;;;;;;;;;21.30;46.80;;;;;;5016568;28;19991;-63
2023/06/08 09:18:02;;;;;;;;;;;21.30;46.80;;;;;;5013482;28;20020;-62
2023/06/08 09:20:29;;;;;;;;;;;21.30;46.80;;;;;;5014770;28;19940;-63
2023/06/08 09:22:56;;;;;;;;;;;21.40;46.80;;;;;;5014859;28;19979;-63
2023/06/08 09:25:36;;;;;;;;;;;21.40;46.90;;;;;;5013954;28;20004;-62
2023/06/08 09:28:22;;;;;;;;;;;21.40;46.90;;;;;;5014928;28;19929;-63
2023/06/08 09:30:50;;;;;;;;;;;21.40;46.80;;;;;;5016386;28;19965;-65
2023/06/08 09:33:20;;;;;;;;;;;21.40;46.90;;;;;;5007653;28;19921;-65
2023/06/08 09:35:47;;;;;;;;;;;21.40;46.80;;;;;;4993674;28;19921;-63
2023/06/08 09:38:20;;;;;;;;;;;21.40;46.90;;;;;;5003405;28;19921;-65
2023/06/08 09:40:50;;;;;;;;;;;21.40;46.90;;;;;;5021369;28;19960;-64
2023/06/08 09:43:31;;;;;;;;;;;21.50;47.00;;;;;;5030142;28;19968;-64
2023/06/08 09:45:57;;;;;;;;;;;21.50;46.90;;;;;;5015896;28;19983;-64
2023/06/08 09:48:24;;;;;;;;;;;21.50;47.00;;;;;;5015566;28;19944;-65
2023/06/08 09:50:51;;;;;;;;;;;21.50;47.00;;;;;;5013294;28;19975;-63
2023/06/08 09:53:19;;;;;;;;;;;21.50;47.00;;;;;;5016887;28;19921;-64
2023/06/08 09:55:46;;;;;;;;;;;21.50;47.00;;;;;;5001707;28;20032;-65
2023/06/08 09:58:13;;;;;;;;;;;21.50;47.00;;;;;;5006243;28;19928;-65
2023/06/08 10:00:41;;;;;;;;;;;21.50;47.00;;;;;;5015406;28;19928;-65
2023/06/08 10:03:11;;;;;;;;;;;21.50;47.00;;;;;;5028439;28;19922;-64
2023/06/08 10:05:43;;;;;;;;;;;21.60;47.00;;;;;;5030194;28;19921;-64
2023/06/08 10:08:11;;;;;;;;;;;21.50;47.00;;;;;;5029853;28;19925;-63
2023/06/08 10:10:38;;;;;;;;;;;21.60;47.00;;;;;;5015530;28;19921;-64
2023/06/08 10:13:05;;;;;;;;;;;21.60;47.00;;;;;;5014590;28;19921;-64
2023/06/08 10:15:32;;;;;;;;;;;21.60;47.00;;;;;;5031297;28;19921;-64
2023/06/08 10:18:01;;;;;;;;;;;21.60;47.00;;;;;;4996247;28;20032;-63
2023/06/08 10:20:28;;;;;;;;;;;21.60;47.10;;;;;;4996463;28;19926;-60
2023/06/08 10:22:56;;;;;;;;;;;21.60;47.10;;;;;;4996549;28;19928;-64
2023/06/08 10:25:23;;;;;;;;;;;21.70;47.20;;;;;;5015558;28;19984;-65
2023/06/08 10:27:50;;;;;;;;;;;21.70;47.30;;;;;;5030507;28;19925;-63
2023/06/08 10:30:26;;;;;;;;;;;21.70;47.40;;;;;;5013272;28;20319;-63
2023/06/08 10:32:54;;;;;;;;;;;21.70;47.40;;;;;;5017872;28;19921;-62
2023/06/08 10:35:23;;;;;;;;;;;21.70;47.40;;;;;;5030590;28;19921;-62
2023/06/08 10:37:50;;;;;;;;;;;21.70;47.40;;;;;;5034520;28;19960;-63
2023/06/08 10:40:18;;;;;;;;;;;21.70;47.70;;;;;;5035448;28;20016;-62
2023/06/08 10:42:51;;;;;;;;;;;21.70;47.60;;;;;;5028639;28;19929;-63
2023/06/08 10:45:18;;;;;;;;;;;21.80;47.90;;;;;;5032146;28;19984;-63
2023/06/08 10:47:46;;;;;;;;;;;21.80;48.00;;;;;;5012839;28;19929;-65
2023/06/08 10:50:12;;;;;;;;;;;21.80;48.20;;;;;;5013164;28;19922;-63
2023/06/08 10:52:42;;;;;;;;;;;21.80;48.30;;;;;;5002786;28;19927;-62
2023/06/08 10:55:11;;;;;;;;;;;21.90;49.00;;;;;;5014726;28;19923;-63
2023/06/08 10:57:40;;;;;;;;;;;21.90;48.50;;;;;;5006829;28;19972;-63
2023/06/08 11:00:22;;;;;;;;;;;21.90;48.60;;;;;;4995641;28;19928;-63
2023/06/08 11:02:48;;;;;;;;;;;21.90;48.60;;;;;;4985011;28;19931;-65
2023/06/08 11:05:15;;;;;;;;;;;21.90;48.80;;;;;;5010859;28;19922;-67
2023/06/08 11:07:43;;;;;;;;;;;21.90;48.70;;;;;;5014112;28;19984;-63
2023/06/08 11:10:10;;;;;;;;;;;21.90;48.60;;;;;;5014610;28;19922;-64
2023/06/08 11:12:37;;;;;;;;;;;22.00;48.60;;;;;;5035134;28;19948;-61
2023/06/08 11:15:05;;;;;;;;;;;22.00;48.60;;;;;;5027329;28;19922;-63
2023/06/08 11:17:31;;;;;;;;;;;22.00;48.60;;;;;;5011743;28;20372;-64
2023/06/08 11:20:04;;;;;;;;;;;22.00;48.60;;;;;;5007818;28;19922;-63
2023/06/08 11:22:31;;;;;;;;;;;22.00;48.50;;;;;;5006569;28;19929;-64
2023/06/08 11:24:59;;;;;;;;;;;22.00;48.50;;;;;;4997472;28;20012;-67
2023/06/08 11:27:26;;;;;;;;;;;22.00;48.50;;;;;;5011507;28;19960;-63
2023/06/08 11:29:53;;;;;;;;;;;22.00;48.50;;;;;;5002978;28;19928;-61
2023/06/08 11:32:20;;;;;;;;;;;22.00;48.50;;;;;;5018965;28;19928;-62
2023/06/08 11:34:49;;;;;;;;;;;22.00;48.50;;;;;;5029685;28;20477;-63
2023/06/08 11:37:16;;;;;;;;;;;22.00;48.50;;;;;;5030935;28;19975;-63
2023/06/08 11:39:43;;;;;;;;;;;22.10;48.60;;;;;;5029255;28;19925;-62
2023/06/08 11:42:11;;;;;;;;;;;22.10;48.50;;;;;;5030984;28;19928;-61
2023/06/08 11:44:38;;;;;;;;;;;22.10;48.50;;;;;;5018088;28;20463;-63
2023/06/08 11:47:06;;;;;;;;;;;22.10;48.50;;;;;;5009624;28;19922;-62
2023/06/08 11:49:48;;;;;;;;;;;22.10;48.50;;;;;;5005840;28;19921;-63
2023/06/08 11:52:14;;;;;;;;;;;22.10;48.50;;;;;;5031089;28;19921;-63
2023/06/08 11:54:41;;;;;;;;;;;22.10;48.50;;;;;;5016930;28;19928;-64
2023/06/08 11:57:08;;;;;;;;;;;22.10;48.50;;;;;;5017871;28;19926;-62
2023/06/08 11:59:37;;;;;;;;;;;22.10;48.50;;;;;;5016653;28;19921;-62
2023/06/08 12:02:09;;;;;;;;;;;22.10;48.40;;;;;;5019074;28;19967;-63
2023/06/08 12:04:36;;;;;;;;;;;22.10;48.40;;;;;;5023400;28;19951;-62
2023/06/08 12:07:10;;;;;;;;;;;22.20;48.50;;;;;;5021906;28;19922;-63
2023/06/08 12:09:36;;;;;;;;;;;22.20;48.50;;;;;;5020672;28;19929;-63
2023/06/08 12:12:08;;;;;;;;;;;22.20;48.40;;;;;;5015539;28;19921;-63
2023/06/08 12:14:38;;;;;;;;;;;22.20;48.40;;;;;;5014507;28;20008;-63
2023/06/08 12:17:05;;;;;;;;;;;22.20;48.40;;;;;;5017163;28;19921;-63
2023/06/08 12:19:32;;;;;;;;;;;22.20;48.40;;;;;;5018080;28;20015;-63
2023/06/08 12:21:59;;;;;;;;;;;22.20;48.30;;;;;;5017121;28;19939;-63
2023/06/08 12:24:26;;;;;;;;;;;22.30;48.30;;;;;;5016624;28;19922;-63
2023/06/08 12:26:53;;;;;;;;;;;22.30;48.30;;;;;;5026624;28;19928;-62
2023/06/08 12:29:19;;;;;;;;;;;22.30;48.20;;;;;;5021206;28;19928;-63
2023/06/08 12:31:47;;;;;;;;;;;22.30;48.20;;;;;;5014830;28;19921;-63
2023/06/08 12:34:14;;;;;;;;;;;22.30;48.20;;;;;;5020554;28;19921;-63
2023/06/08 12:36:41;;;;;;;;;;;22.30;48.10;;;;;;5028795;28;20321;-63
2023/06/08 12:39:08;;;;;;;;;;;22.30;48.10;;;;;;5027180;28;19928;-63
2023/06/08 12:41:34;;;;;;;;;;;22.30;48.00;;;;;;5028321;28;19922;-62
2023/06/08 12:44:01;;;;;;;;;;;22.30;48.00;;;;;;5017212;28;19921;-62
2023/06/08 12:46:29;;;;;;;;;;;22.30;48.00;;;;;;5005114;28;19925;-64
2023/06/08 12:48:58;;;;;;;;;;;22.30;48.00;;;;;;4997495;28;19922;-63
2023/06/08 12:51:25;;;;;;;;;;;22.30;48.00;;;;;;5014716;28;19929;-62
2023/06/08 12:53:51;;;;;;;;;;;22.30;48.00;;;;;;5016102;28;19927;-63
2023/06/08 12:56:18;;;;;;;;;;;22.30;48.00;;;;;;5011634;28;19921;-62
2023/06/08 12:58:45;;;;;;;;;;;22.30;47.90;;;;;;5033694;28;19925;-63
2023/06/08 13:01:12;;;;;;;;;;;22.30;47.80;;;;;;5025997;28;19925;-63
2023/06/08 13:03:42;;;;;;;;;;;22.40;47.90;;;;;;5013966;28;19925;-64
2023/06/08 13:06:10;;;;;;;;;;;22.40;47.80;;;;;;5011749;28;19925;-63
2023/06/08 13:08:37;;;;;;;;;;;22.30;47.70;;;;;;5013121;28;19980;-62
2023/06/08 13:11:04;;;;;;;;;;;22.40;47.70;;;;;;5027151;28;19920;-63
2023/06/08 13:13:31;;;;;;;;;;;22.40;47.70;;;;;;5010674;28;20371;-62
2023/06/08 13:15:59;;;;;;;;;;;22.40;47.70;;;;;;5016932;28;19928;-63
2023/06/08 13:18:26;;;;;;;;;;;22.40;47.60;;;;;;5013851;28;19933;-62
2023/06/08 13:20:56;;;;;;;;;;;22.40;47.60;;;;;;5037953;28;19992;-62
2023/06/08 13:23:25;;;;;;;;;;;22.40;47.50;;;;;;5050073;28;19983;-62
2023/06/08 13:25:52;;;;;;;;;;;22.40;47.50;;;;;;5021716;28;19926;-63
2023/06/08 13:28:19;;;;;;;;;;;22.40;47.40;;;;;;5016816;28;19932;-63
2023/06/08 13:30:46;;;;;;;;;;;22.40;47.40;;;;;;5028353;28;19925;-63
2023/06/08 13:33:13;;;;;;;;;;;22.40;47.30;;;;;;5014742;28;20275;-65
2023/06/08 13:35:43;;;;;;;;;;;22.50;47.30;;;;;;5023121;28;19926;-63
2023/06/08 13:38:10;;;;;;;;;;;22.40;47.10;;;;;;5013179;28;20467;-65
2023/06/08 13:40:39;;;;;;;;;;;22.40;47.00;;;;;;5015781;28;20268;-67
2023/06/08 13:43:09;;;;;;;;;;;22.50;47.10;;;;;;5031155;28;19921;-67
2023/06/08 13:45:36;;;;;;;;;;;22.50;47.00;;;;;;5035145;28;19927;-66
2023/06/08 13:48:03;;;;;;;;;;;22.50;47.00;;;;;;5035247;28;20379;-63
2023/06/08 13:50:30;;;;;;;;;;;22.40;46.80;;;;;;5021633;28;19989;-62
2023/06/08 13:52:57;;;;;;;;;;;22.50;46.80;;;;;;5034372;28;19928;-63
2023/06/08 13:55:24;;;;;;;;;;;22.50;46.80;;;;;;4998721;28;20390;-63
2023/06/08 13:57:52;;;;;;;;;;;22.40;47.20;;;;;;4999406;28;19957;-62
2023/06/08 14:00:21;;;;;;;;;;;22.50;46.60;;;;;;4998510;28;19921;-63
2023/06/08 14:02:47;;;;;;;;;;;22.40;46.50;;;;;;4998254;28;19936;-65
2023/06/08 14:05:17;;;;;;;;;;;22.50;46.50;;;;;;5007010;28;20356;-64
2023/06/08 14:07:43;;;;;;;;;;;22.50;46.50;;;;;;5017171;28;19921;-64
2023/06/08 14:10:10;;;;;;;;;;;22.50;46.50;;;;;;5020516;28;19921;-63
2023/06/08 14:12:38;;;;;;;;;;;22.50;46.40;;;;;;5031450;28;19976;-63
2023/06/08 14:15:08;;;;;;;;;;;22.50;47.00;;;;;;5014235;28;19921;-62
2023/06/08 14:17:34;;;;;;;;;;;22.50;46.30;;;;;;5025640;28;20013;-62
2023/06/08 14:20:01;;;;;;;;;;;22.50;46.30;;;;;;4994500;28;19922;-64